sensor_id;sensor_type;location;lat;lon;timestamp;pressure;altitude;pressure_sealevel;temperature;humidity
31331;BME280;34067;39.548;-76.088;2023-05-09T00:02:08;100924.28;;;22.69;42.00
31331;BME280;34067;39.548;-76.088;2023-05-09T00:04:36;100925.28;;;22.70;42.35
31331;BME280;34067;39.548;-76.088;2023-05-09T00:07:04;100929.53;;;22.54;42.81
31331;BME280;34067;39.548;-76.088;2023-05-09T00:09:32;100926.69;;;22.53;41.56
31331;BME280;34067;39.548;-76.088;2023-05-09T00:11:59;100929.16;;;22.32;41.18
31331;BME280;34067;39.548;-76.088;2023-05-09T00:14:27;100932.09;;;23.43;40.85
31331;BME280;34067;39.548;-76.088;2023-05-09T00:16:55;100936.17;;;22.36;41.33
31331;BME280;34067;39.548;-76.088;2023-05-09T00:19:23;100937.80;;;22.66;41.69
31331;BME280;34067;39.548;-76.088;2023-05-09T00:21:51;100938.61;;;21.88;41.85
31331;BME280;34067;39.548;-76.088;2023-05-09T00:24:19;100943.58;;;22.78;41.01
31331;BME280;34067;39.548;-76.088;2023-05-09T00:26:46;100950.49;;;23.19;41.18
31331;BME280;34067;39.548;-76.088;2023-05-09T00:29:14;100954.93;;;22.82;41.09
31331;BME280;34067;39.548;-76.088;2023-05-09T00:31:42;100956.11;;;23.30;40.61
31331;BME280;34067;39.548;-76.088;2023-05-09T00:34:10;100956.11;;;22.53;41.46
31331;BME280;34067;39.548;-76.088;2023-05-09T00:36:38;100955.58;;;22.44;41.71
31331;BME280;34067;39.548;-76.088;2023-05-09T00:39:06;100956.13;;;22.16;44.11
31331;BME280;34067;39.548;-76.088;2023-05-09T00:41:34;100959.17;;;22.14;46.00
31331;BME280;34067;39.548;-76.088;2023-05-09T00:44:02;100967.46;;;22.08;47.40
31331;BME280;34067;39.548;-76.088;2023-05-09T00:46:30;100966.94;;;22.00;47.62
31331;BME280;34067;39.548;-76.088;2023-05-09T00:48:58;100965.44;;;20.76;49.22
31331;BME280;34067;39.548;-76.088;2023-05-09T00:51:27;100962.97;;;20.97;49.88
31331;BME280;34067;39.548;-76.088;2023-05-09T00:53:54;100966.39;;;20.41;51.15
31331;BME280;34067;39.548;-76.088;2023-05-09T00:56:23;100971.20;;;20.16;52.64
31331;BME280;34067;39.548;-76.088;2023-05-09T00:58:51;100975.18;;;18.88;55.78
31331;BME280;34067;39.548;-76.088;2023-05-09T01:01:19;100967.28;;;20.35;54.16
31331;BME280;34067;39.548;-76.088;2023-05-09T01:03:48;100967.85;;;20.11;53.42
31331;BME280;34067;39.548;-76.088;2023-05-09T01:06:23;100970.06;;;20.17;51.80
31331;BME280;34067;39.548;-76.088;2023-05-09T01:08:59;100976.27;;;19.83;53.44
31331;BME280;34067;39.548;-76.088;2023-05-09T01:11:34;100981.02;;;20.19;54.20
31331;BME280;34067;39.548;-76.088;2023-05-09T01:14:11;100983.42;;;20.24;52.16
31331;BME280;34067;39.548;-76.088;2023-05-09T01:16:46;100989.39;;;19.67;53.40
31331;BME280;34067;39.548;-76.088;2023-05-09T01:19:34;100996.70;;;20.04;53.49
31331;BME280;34067;39.548;-76.088;2023-05-09T01:22:07;100998.71;;;20.25;53.82
31331;BME280;34067;39.548;-76.088;2023-05-09T01:24:59;100997.22;;;20.62;53.68
31331;BME280;34067;39.548;-76.088;2023-05-09T01:27:38;101001.13;;;20.82;56.02
31331;BME280;34067;39.548;-76.088;2023-05-09T01:30:07;101003.97;;;20.22;57.29
31331;BME280;34067;39.548;-76.088;2023-05-09T01:32:38;101005.11;;;19.83;59.14
31331;BME280;34067;39.548;-76.088;2023-05-09T01:35:11;101003.79;;;19.47;59.68
31331;BME280;34067;39.548;-76.088;2023-05-09T01:37:41;101004.27;;;18.64;60.61
31331;BME280;34067;39.548;-76.088;2023-05-09T01:40:13;101003.50;;;18.48;57.77
31331;BME280;34067;39.548;-76.088;2023-05-09T01:42:43;101008.63;;;18.51;58.51
31331;BME280;34067;39.548;-76.088;2023-05-09T01:45:13;101014.28;;;18.36;59.45
31331;BME280;34067;39.548;-76.088;2023-05-09T01:47:42;101020.41;;;18.17;60.71
31331;BME280;34067;39.548;-76.088;2023-05-09T01:50:11;101021.46;;;18.38;63.24
31331;BME280;34067;39.548;-76.088;2023-05-09T01:52:40;101020.36;;;18.47;64.65
31331;BME280;34067;39.548;-76.088;2023-05-09T01:55:09;101020.17;;;16.32;71.04
31331;BME280;34067;39.548;-76.088;2023-05-09T01:57:38;101013.31;;;16.58;75.00
31331;BME280;34067;39.548;-76.088;2023-05-09T02:00:08;101014.89;;;17.39;72.21
31331;BME280;34067;39.548;-76.088;2023-05-09T02:02:36;101014.77;;;15.84;74.85
31331;BME280;34067;39.548;-76.088;2023-05-09T02:05:06;101012.28;;;16.71;72.69
31331;BME280;34067;39.548;-76.088;2023-05-09T02:07:36;101014.21;;;17.02;74.50
31331;BME280;34067;39.548;-76.088;2023-05-09T02:10:07;101014.61;;;17.15;72.05
31331;BME280;34067;39.548;-76.088;2023-05-09T02:12:36;101019.26;;;16.53;75.56
31331;BME280;34067;39.548;-76.088;2023-05-09T02:15:05;101018.92;;;16.65;73.86
31331;BME280;34067;39.548;-76.088;2023-05-09T02:17:32;101023.39;;;16.07;76.57
31331;BME280;34067;39.548;-76.088;2023-05-09T02:20:00;101025.11;;;16.45;74.45
31331;BME280;34067;39.548;-76.088;2023-05-09T02:22:28;101033.61;;;16.61;75.97
31331;BME280;34067;39.548;-76.088;2023-05-09T02:24:56;101039.62;;;15.50;78.24
31331;BME280;34067;39.548;-76.088;2023-05-09T02:27:26;101037.22;;;16.03;77.97
31331;BME280;34067;39.548;-76.088;2023-05-09T02:29:55;101038.15;;;14.90;80.04
31331;BME280;34067;39.548;-76.088;2023-05-09T02:32:27;101040.35;;;14.70;82.43
31331;BME280;34067;39.548;-76.088;2023-05-09T02:34:57;101042.56;;;16.01;81.40
31331;BME280;34067;39.548;-76.088;2023-05-09T02:37:26;101042.49;;;14.85;82.52
31331;BME280;34067;39.548;-76.088;2023-05-09T02:39:54;101038.80;;;14.89;81.87
31331;BME280;34067;39.548;-76.088;2023-05-09T02:42:24;101040.85;;;14.86;85.46
31331;BME280;34067;39.548;-76.088;2023-05-09T02:44:54;101039.40;;;14.77;84.77
31331;BME280;34067;39.548;-76.088;2023-05-09T02:47:22;101040.61;;;15.66;83.35
31331;BME280;34067;39.548;-76.088;2023-05-09T02:49:50;101035.94;;;13.93;89.44
31331;BME280;34067;39.548;-76.088;2023-05-09T02:52:18;101037.41;;;14.30;90.25
31331;BME280;34067;39.548;-76.088;2023-05-09T02:54:46;101041.27;;;14.17;92.63
31331;BME280;34067;39.548;-76.088;2023-05-09T02:57:14;101042.55;;;14.89;91.55
31331;BME280;34067;39.548;-76.088;2023-05-09T02:59:42;101038.75;;;14.90;87.41
31331;BME280;34067;39.548;-76.088;2023-05-09T03:02:10;101032.99;;;14.55;88.85
31331;BME280;34067;39.548;-76.088;2023-05-09T03:04:38;101026.00;;;14.36;91.56
31331;BME280;34067;39.548;-76.088;2023-05-09T03:07:06;101026.82;;;14.53;92.69
31331;BME280;34067;39.548;-76.088;2023-05-09T03:09:34;101027.16;;;13.94;96.03
31331;BME280;34067;39.548;-76.088;2023-05-09T03:12:02;101029.14;;;14.66;91.80
31331;BME280;34067;39.548;-76.088;2023-05-09T03:14:30;101030.03;;;15.14;93.29
31331;BME280;34067;39.548;-76.088;2023-05-09T03:16:58;101029.01;;;14.86;94.63
31331;BME280;34067;39.548;-76.088;2023-05-09T03:19:26;101033.56;;;13.86;100.00
31331;BME280;34067;39.548;-76.088;2023-05-09T03:21:54;101027.62;;;13.42;100.00
31331;BME280;34067;39.548;-76.088;2023-05-09T03:24:22;101027.56;;;13.20;100.00
31331;BME280;34067;39.548;-76.088;2023-05-09T03:26:50;101030.36;;;13.75;99.62
31331;BME280;34067;39.548;-76.088;2023-05-09T03:29:18;101039.75;;;13.85;97.94
31331;BME280;34067;39.548;-76.088;2023-05-09T03:31:46;101041.26;;;14.90;96.21
31331;BME280;34067;39.548;-76.088;2023-05-09T03:34:14;101039.14;;;14.57;96.89
31331;BME280;34067;39.548;-76.088;2023-05-09T03:36:42;101040.55;;;14.53;97.59
31331;BME280;34067;39.548;-76.088;2023-05-09T03:39:10;101042.95;;;14.67;96.66
31331;BME280;34067;39.548;-76.088;2023-05-09T03:41:38;101048.47;;;16.05;91.78
31331;BME280;34067;39.548;-76.088;2023-05-09T03:44:06;101051.40;;;16.34;82.54
31331;BME280;34067;39.548;-76.088;2023-05-09T03:46:34;101050.27;;;16.23;80.67
31331;BME280;34067;39.548;-76.088;2023-05-09T03:49:02;101047.69;;;15.49;87.85
31331;BME280;34067;39.548;-76.088;2023-05-09T03:51:30;101043.82;;;14.57;94.32
31331;BME280;34067;39.548;-76.088;2023-05-09T03:53:58;101041.63;;;13.49;97.65
31331;BME280;34067;39.548;-76.088;2023-05-09T03:56:26;101043.75;;;15.46;93.29
31331;BME280;34067;39.548;-76.088;2023-05-09T03:58:54;101041.31;;;14.52;95.90
31331;BME280;34067;39.548;-76.088;2023-05-09T04:01:22;101044.93;;;14.07;92.39
31331;BME280;34067;39.548;-76.088;2023-05-09T04:03:50;101043.85;;;14.67;91.23
31331;BME280;34067;39.548;-76.088;2023-05-09T04:06:18;101044.70;;;15.18;90.82
31331;BME280;34067;39.548;-76.088;2023-05-09T04:08:46;101041.50;;;15.21;90.69
31331;BME280;34067;39.548;-76.088;2023-05-09T04:11:14;101045.92;;;15.01;88.39
31331;BME280;34067;39.548;-76.088;2023-05-09T04:13:42;101049.32;;;14.79;89.22
31331;BME280;34067;39.548;-76.088;2023-05-09T04:16:10;101050.65;;;15.93;84.79
31331;BME280;34067;39.548;-76.088;2023-05-09T04:18:38;101052.16;;;15.84;87.05
31331;BME280;34067;39.548;-76.088;2023-05-09T04:21:06;101050.09;;;14.63;91.19
31331;BME280;34067;39.548;-76.088;2023-05-09T04:23:34;101050.42;;;13.77;92.21
31331;BME280;34067;39.548;-76.088;2023-05-09T04:26:02;101052.46;;;14.83;90.86
31331;BME280;34067;39.548;-76.088;2023-05-09T04:28:30;101056.47;;;14.94;88.38
31331;BME280;34067;39.548;-76.088;2023-05-09T04:30:58;101048.80;;;14.16;91.45
31331;BME280;34067;39.548;-76.088;2023-05-09T04:33:26;101048.88;;;14.38;92.27
31331;BME280;34067;39.548;-76.088;2023-05-09T04:35:54;101050.64;;;15.40;88.71
31331;BME280;34067;39.548;-76.088;2023-05-09T04:38:23;101050.79;;;14.54;92.97
31331;BME280;34067;39.548;-76.088;2023-05-09T04:40:50;101048.98;;;14.73;94.60
31331;BME280;34067;39.548;-76.088;2023-05-09T04:43:18;101049.48;;;14.70;91.92
31331;BME280;34067;39.548;-76.088;2023-05-09T04:45:47;101049.85;;;15.66;86.21
31331;BME280;34067;39.548;-76.088;2023-05-09T04:48:15;101048.23;;;16.36;79.83
31331;BME280;34067;39.548;-76.088;2023-05-09T04:50:43;101046.95;;;16.90;76.99
31331;BME280;34067;39.548;-76.088;2023-05-09T04:53:11;101045.97;;;16.89;74.16
31331;BME280;34067;39.548;-76.088;2023-05-09T04:55:39;101045.20;;;16.86;73.88
31331;BME280;34067;39.548;-76.088;2023-05-09T04:58:08;101047.04;;;15.95;74.77
31331;BME280;34067;39.548;-76.088;2023-05-09T05:03:11;101049.87;;;13.91;85.22
31331;BME280;34067;39.548;-76.088;2023-05-09T05:05:39;101056.10;;;13.27;89.57
31331;BME280;34067;39.548;-76.088;2023-05-09T05:08:07;101059.23;;;13.85;91.71
31331;BME280;34067;39.548;-76.088;2023-05-09T05:10:35;101057.37;;;14.78;90.35
31331;BME280;34067;39.548;-76.088;2023-05-09T05:13:03;101054.19;;;14.56;89.34
31331;BME280;34067;39.548;-76.088;2023-05-09T05:15:31;101052.94;;;16.15;82.83
31331;BME280;34067;39.548;-76.088;2023-05-09T05:17:59;101051.63;;;17.04;79.78
31331;BME280;34067;39.548;-76.088;2023-05-09T05:20:27;101055.13;;;17.40;78.47
31331;BME280;34067;39.548;-76.088;2023-05-09T05:22:55;101067.31;;;15.66;81.60
31331;BME280;34067;39.548;-76.088;2023-05-09T05:25:23;101071.77;;;14.40;88.08
31331;BME280;34067;39.548;-76.088;2023-05-09T05:27:51;101077.50;;;12.65;94.93
31331;BME280;34067;39.548;-76.088;2023-05-09T05:30:19;101098.57;;;12.72;100.00
31331;BME280;34067;39.548;-76.088;2023-05-09T05:32:47;101102.73;;;13.02;100.00
31331;BME280;34067;39.548;-76.088;2023-05-09T05:35:15;101090.42;;;13.65;96.37
31331;BME280;34067;39.548;-76.088;2023-05-09T05:37:43;101085.65;;;14.66;91.26
31331;BME280;34067;39.548;-76.088;2023-05-09T05:40:11;101079.22;;;15.81;82.95
31331;BME280;34067;39.548;-76.088;2023-05-09T05:42:39;101068.57;;;16.38;80.81
31331;BME280;34067;39.548;-76.088;2023-05-09T05:45:08;101068.24;;;16.72;78.10
31331;BME280;34067;39.548;-76.088;2023-05-09T05:47:36;101072.62;;;16.86;77.07
31331;BME280;34067;39.548;-76.088;2023-05-09T05:50:05;101070.10;;;17.10;76.43
31331;BME280;34067;39.548;-76.088;2023-05-09T05:52:34;101066.59;;;17.42;76.41
31331;BME280;34067;39.548;-76.088;2023-05-09T05:55:02;101064.52;;;17.44;77.63
31331;BME280;34067;39.548;-76.088;2023-05-09T05:57:31;101062.05;;;17.45;77.72
31331;BME280;34067;39.548;-76.088;2023-05-09T05:59:58;101064.02;;;17.09;78.60
31331;BME280;34067;39.548;-76.088;2023-05-09T06:02:26;101069.07;;;17.17;73.06
31331;BME280;34067;39.548;-76.088;2023-05-09T06:04:54;101076.74;;;18.00;72.55
31331;BME280;34067;39.548;-76.088;2023-05-09T06:07:22;101073.99;;;17.68;71.91
31331;BME280;34067;39.548;-76.088;2023-05-09T06:09:50;101067.75;;;16.80;74.83
31331;BME280;34067;39.548;-76.088;2023-05-09T06:12:19;101052.58;;;17.49;72.11
31331;BME280;34067;39.548;-76.088;2023-05-09T06:14:46;101044.68;;;17.15;73.85
31331;BME280;34067;39.548;-76.088;2023-05-09T06:17:14;101045.42;;;16.65;75.56
31331;BME280;34067;39.548;-76.088;2023-05-09T06:19:42;101046.37;;;17.61;72.63
31331;BME280;34067;39.548;-76.088;2023-05-09T06:22:10;101050.25;;;17.52;72.11
31331;BME280;34067;39.548;-76.088;2023-05-09T06:24:39;101053.77;;;17.65;70.73
31331;BME280;34067;39.548;-76.088;2023-05-09T06:27:07;101056.68;;;16.41;72.18
31331;BME280;34067;39.548;-76.088;2023-05-09T06:29:35;101060.51;;;16.36;77.13
31331;BME280;34067;39.548;-76.088;2023-05-09T06:32:03;101058.23;;;15.13;80.58
31331;BME280;34067;39.548;-76.088;2023-05-09T06:34:31;101048.32;;;15.42;79.18
31331;BME280;34067;39.548;-76.088;2023-05-09T06:36:59;101039.74;;;16.32;78.68
31331;BME280;34067;39.548;-76.088;2023-05-09T06:39:27;101042.46;;;16.73;78.45
31331;BME280;34067;39.548;-76.088;2023-05-09T06:41:55;101045.25;;;15.33;80.61
31331;BME280;34067;39.548;-76.088;2023-05-09T06:44:23;101043.92;;;16.30;78.55
31331;BME280;34067;39.548;-76.088;2023-05-09T06:46:51;101056.83;;;15.65;82.20
31331;BME280;34067;39.548;-76.088;2023-05-09T06:49:19;101058.99;;;14.98;89.13
31331;BME280;34067;39.548;-76.088;2023-05-09T06:51:47;101063.77;;;14.82;89.69
31331;BME280;34067;39.548;-76.088;2023-05-09T06:54:15;101063.80;;;15.80;86.73
31331;BME280;34067;39.548;-76.088;2023-05-09T06:56:43;101061.75;;;15.88;83.92
31331;BME280;34067;39.548;-76.088;2023-05-09T06:59:11;101066.25;;;14.65;88.58
31331;BME280;34067;39.548;-76.088;2023-05-09T07:01:39;101071.15;;;15.06;88.32
31331;BME280;34067;39.548;-76.088;2023-05-09T07:04:07;101075.38;;;14.12;91.73
31331;BME280;34067;39.548;-76.088;2023-05-09T07:06:35;101079.93;;;14.58;92.58
31331;BME280;34067;39.548;-76.088;2023-05-09T07:09:03;101089.12;;;13.75;95.87
31331;BME280;34067;39.548;-76.088;2023-05-09T07:11:34;101094.36;;;13.87;97.36
31331;BME280;34067;39.548;-76.088;2023-05-09T07:14:01;101100.87;;;14.00;97.79
31331;BME280;34067;39.548;-76.088;2023-05-09T07:16:29;101100.65;;;12.93;94.40
31331;BME280;34067;39.548;-76.088;2023-05-09T07:18:57;101109.05;;;13.91;95.44
31331;BME280;34067;39.548;-76.088;2023-05-09T07:21:25;101106.12;;;14.42;95.66
31331;BME280;34067;39.548;-76.088;2023-05-09T07:23:53;101100.93;;;14.50;91.10
31331;BME280;34067;39.548;-76.088;2023-05-09T07:26:21;101102.98;;;15.40;87.46
31331;BME280;34067;39.548;-76.088;2023-05-09T07:28:50;101106.68;;;16.64;80.61
31331;BME280;34067;39.548;-76.088;2023-05-09T07:31:17;101111.89;;;16.43;81.32
31331;BME280;34067;39.548;-76.088;2023-05-09T07:33:45;101107.94;;;16.97;75.66
31331;BME280;34067;39.548;-76.088;2023-05-09T07:36:13;101101.55;;;16.86;71.82
31331;BME280;34067;39.548;-76.088;2023-05-09T07:38:41;101101.56;;;16.92;72.97
31331;BME280;34067;39.548;-76.088;2023-05-09T07:41:09;101100.98;;;18.09;70.04
31331;BME280;34067;39.548;-76.088;2023-05-09T07:43:37;101100.87;;;17.78;68.99
31331;BME280;34067;39.548;-76.088;2023-05-09T07:46:05;101104.38;;;17.33;72.60
31331;BME280;34067;39.548;-76.088;2023-05-09T07:48:33;101097.19;;;17.22;74.12
31331;BME280;34067;39.548;-76.088;2023-05-09T07:51:01;101096.60;;;17.29;76.22
31331;BME280;34067;39.548;-76.088;2023-05-09T07:53:29;101101.24;;;16.43;81.02
31331;BME280;34067;39.548;-76.088;2023-05-09T07:55:57;101103.32;;;14.15;85.65
31331;BME280;34067;39.548;-76.088;2023-05-09T07:58:25;101097.06;;;16.34;86.22
31331;BME280;34067;39.548;-76.088;2023-05-09T08:00:55;101086.08;;;16.21;80.24
31331;BME280;34067;39.548;-76.088;2023-05-09T08:03:23;101078.73;;;17.36;74.65
31331;BME280;34067;39.548;-76.088;2023-05-09T08:05:53;101082.00;;;17.32;75.03
31331;BME280;34067;39.548;-76.088;2023-05-09T08:08:21;101078.47;;;17.19;75.56
31331;BME280;34067;39.548;-76.088;2023-05-09T08:10:49;101080.38;;;16.58;74.82
31331;BME280;34067;39.548;-76.088;2023-05-09T08:13:17;101088.47;;;16.16;75.61
31331;BME280;34067;39.548;-76.088;2023-05-09T08:15:45;101096.52;;;16.16;76.01
31331;BME280;34067;39.548;-76.088;2023-05-09T08:18:13;101098.48;;;16.24;82.98
31331;BME280;34067;39.548;-76.088;2023-05-09T08:20:41;101096.09;;;14.33;89.77
31331;BME280;34067;39.548;-76.088;2023-05-09T08:23:09;101095.76;;;15.33;86.31
31331;BME280;34067;39.548;-76.088;2023-05-09T08:25:37;101098.58;;;14.80;89.52
31331;BME280;34067;39.548;-76.088;2023-05-09T08:28:05;101103.21;;;15.06;89.36
31331;BME280;34067;39.548;-76.088;2023-05-09T08:30:32;101103.73;;;14.12;86.67
31331;BME280;34067;39.548;-76.088;2023-05-09T08:33:00;101123.31;;;14.65;86.05
31331;BME280;34067;39.548;-76.088;2023-05-09T08:35:28;101136.28;;;14.54;89.65
31331;BME280;34067;39.548;-76.088;2023-05-09T08:37:56;101124.24;;;14.82;85.96
31331;BME280;34067;39.548;-76.088;2023-05-09T08:40:24;101118.87;;;15.33;83.96
31331;BME280;34067;39.548;-76.088;2023-05-09T08:42:52;101115.50;;;14.12;94.47
31331;BME280;34067;39.548;-76.088;2023-05-09T08:45:25;101107.62;;;15.16;88.63
31331;BME280;34067;39.548;-76.088;2023-05-09T08:47:56;101109.27;;;14.80;87.65
31331;BME280;34067;39.548;-76.088;2023-05-09T08:50:25;101105.39;;;16.26;81.73
31331;BME280;34067;39.548;-76.088;2023-05-09T08:52:53;101090.11;;;16.07;73.89
31331;BME280;34067;39.548;-76.088;2023-05-09T08:55:21;101084.15;;;16.69;74.27
31331;BME280;34067;39.548;-76.088;2023-05-09T08:57:49;101086.32;;;15.73;80.16
31331;BME280;34067;39.548;-76.088;2023-05-09T09:00:19;101087.57;;;16.09;78.83
31331;BME280;34067;39.548;-76.088;2023-05-09T09:02:47;101089.63;;;14.93;82.46
31331;BME280;34067;39.548;-76.088;2023-05-09T09:05:15;101098.15;;;15.65;80.82
31331;BME280;34067;39.548;-76.088;2023-05-09T09:07:43;101107.41;;;15.70;83.47
31331;BME280;34067;39.548;-76.088;2023-05-09T09:10:12;101106.18;;;15.07;85.89
31331;BME280;34067;39.548;-76.088;2023-05-09T09:12:42;101103.38;;;15.47;84.03
31331;BME280;34067;39.548;-76.088;2023-05-09T09:15:14;101102.10;;;14.76;87.61
31331;BME280;34067;39.548;-76.088;2023-05-09T09:17:43;101102.05;;;14.49;88.29
31331;BME280;34067;39.548;-76.088;2023-05-09T09:20:13;101110.84;;;14.58;92.91
31331;BME280;34067;39.548;-76.088;2023-05-09T09:22:43;101118.53;;;12.86;98.16
31331;BME280;34067;39.548;-76.088;2023-05-09T09:25:12;101116.22;;;14.06;95.83
31331;BME280;34067;39.548;-76.088;2023-05-09T09:27:40;101125.72;;;12.91;100.00
31331;BME280;34067;39.548;-76.088;2023-05-09T09:30:10;101132.29;;;13.22;100.00
31331;BME280;34067;39.548;-76.088;2023-05-09T09:32:38;101132.18;;;12.04;100.00
31331;BME280;34067;39.548;-76.088;2023-05-09T09:35:08;101120.69;;;11.81;100.00
31331;BME280;34067;39.548;-76.088;2023-05-09T09:37:38;101125.70;;;11.76;100.00
31331;BME280;34067;39.548;-76.088;2023-05-09T09:40:09;101129.50;;;12.44;100.00
31331;BME280;34067;39.548;-76.088;2023-05-09T09:42:42;101137.96;;;11.90;100.00
31331;BME280;34067;39.548;-76.088;2023-05-09T09:45:12;101140.16;;;10.62;100.00
31331;BME280;34067;39.548;-76.088;2023-05-09T09:47:41;101133.41;;;12.41;100.00
31331;BME280;34067;39.548;-76.088;2023-05-09T09:50:11;101129.29;;;13.38;100.00
31331;BME280;34067;39.548;-76.088;2023-05-09T09:52:44;101134.56;;;12.49;100.00
31331;BME280;34067;39.548;-76.088;2023-05-09T09:55:15;101143.62;;;12.50;100.00
31331;BME280;34067;39.548;-76.088;2023-05-09T09:57:44;101153.79;;;13.05;100.00
31331;BME280;34067;39.548;-76.088;2023-05-09T10:00:14;101160.12;;;13.55;100.00
31331;BME280;34067;39.548;-76.088;2023-05-09T10:02:51;101162.65;;;12.27;100.00
31331;BME280;34067;39.548;-76.088;2023-05-09T10:05:20;101161.64;;;11.65;100.00
31331;BME280;34067;39.548;-76.088;2023-05-09T10:07:54;101161.47;;;11.37;100.00
31331;BME280;34067;39.548;-76.088;2023-05-09T10:10:25;101163.53;;;10.85;100.00
31331;BME280;34067;39.548;-76.088;2023-05-09T10:12:56;101164.45;;;10.46;100.00
31331;BME280;34067;39.548;-76.088;2023-05-09T10:15:25;101173.79;;;13.17;100.00
31331;BME280;34067;39.548;-76.088;2023-05-09T10:17:57;101171.07;;;13.05;100.00
31331;BME280;34067;39.548;-76.088;2023-05-09T10:20:27;101171.60;;;12.56;100.00
31331;BME280;34067;39.548;-76.088;2023-05-09T10:22:57;101169.04;;;11.76;100.00
31331;BME280;34067;39.548;-76.088;2023-05-09T10:25:36;101170.06;;;12.11;100.00
31331;BME280;34067;39.548;-76.088;2023-05-09T10:28:07;101168.49;;;12.49;100.00
31331;BME280;34067;39.548;-76.088;2023-05-09T10:30:45;101172.33;;;11.64;100.00
31331;BME280;34067;39.548;-76.088;2023-05-09T10:33:19;101174.98;;;11.80;100.00
31331;BME280;34067;39.548;-76.088;2023-05-09T10:35:51;101169.79;;;12.75;100.00
31331;BME280;34067;39.548;-76.088;2023-05-09T10:38:21;101171.56;;;11.94;100.00
31331;BME280;34067;39.548;-76.088;2023-05-09T10:40:50;101170.81;;;12.91;100.00
31331;BME280;34067;39.548;-76.088;2023-05-09T10:43:19;101169.60;;;12.11;100.00
31331;BME280;34067;39.548;-76.088;2023-05-09T10:45:48;101164.74;;;12.25;95.58
31331;BME280;34067;39.548;-76.088;2023-05-09T10:48:16;101176.55;;;12.61;96.39
31331;BME280;34067;39.548;-76.088;2023-05-09T10:50:45;101177.86;;;12.53;92.65
31331;BME280;34067;39.548;-76.088;2023-05-09T10:53:13;101183.34;;;11.12;100.00
31331;BME280;34067;39.548;-76.088;2023-05-09T10:55:49;101185.85;;;12.82;94.86
31331;BME280;34067;39.548;-76.088;2023-05-09T10:58:20;101183.84;;;12.20;86.14
31331;BME280;34067;39.548;-76.088;2023-05-09T11:00:51;101177.51;;;12.23;86.82
31331;BME280;34067;39.548;-76.088;2023-05-09T11:03:20;101176.08;;;11.13;100.00
31331;BME280;34067;39.548;-76.088;2023-05-09T11:05:49;101173.12;;;11.21;96.16
31331;BME280;34067;39.548;-76.088;2023-05-09T11:08:20;101173.66;;;12.00;87.00
31331;BME280;34067;39.548;-76.088;2023-05-09T11:10:49;101174.49;;;11.90;92.58
31331;BME280;34067;39.548;-76.088;2023-05-09T11:13:19;101170.65;;;12.77;96.03
31331;BME280;34067;39.548;-76.088;2023-05-09T11:16:10;101175.92;;;12.21;90.80
31331;BME280;34067;39.548;-76.088;2023-05-09T11:18:54;101179.64;;;11.23;72.27
31331;BME280;34067;39.548;-76.088;2023-05-09T11:21:22;101186.24;;;12.37;68.44
31331;BME280;34067;39.548;-76.088;2023-05-09T11:23:50;101185.07;;;12.98;65.03
31331;BME280;34067;39.548;-76.088;2023-05-09T11:26:22;101187.68;;;11.84;63.30
31331;BME280;34067;39.548;-76.088;2023-05-09T11:28:58;101191.55;;;11.80;66.19
31331;BME280;34067;39.548;-76.088;2023-05-09T11:31:26;101205.47;;;12.81;67.19
31331;BME280;34067;39.548;-76.088;2023-05-09T11:34:00;101205.98;;;12.35;70.54
31331;BME280;34067;39.548;-76.088;2023-05-09T11:36:29;101201.36;;;12.90;61.99
31331;BME280;34067;39.548;-76.088;2023-05-09T11:39:03;101201.59;;;11.73;56.24
31331;BME280;34067;39.548;-76.088;2023-05-09T11:41:37;101194.81;;;11.83;62.19
31331;BME280;34067;39.548;-76.088;2023-05-09T11:44:13;101199.42;;;11.51;58.87
31331;BME280;34067;39.548;-76.088;2023-05-09T11:46:42;101196.18;;;11.69;56.42
31331;BME280;34067;39.548;-76.088;2023-05-09T11:49:09;101186.87;;;12.56;56.87
31331;BME280;34067;39.548;-76.088;2023-05-09T11:51:38;101192.61;;;12.40;56.84
31331;BME280;34067;39.548;-76.088;2023-05-09T11:54:07;101192.12;;;14.14;53.79
31331;BME280;34067;39.548;-76.088;2023-05-09T11:56:37;101210.97;;;12.61;52.31
31331;BME280;34067;39.548;-76.088;2023-05-09T11:59:06;101219.03;;;11.78;52.82
31331;BME280;34067;39.548;-76.088;2023-05-09T12:01:35;101214.88;;;11.94;49.70
31331;BME280;34067;39.548;-76.088;2023-05-09T12:04:05;101216.60;;;12.30;52.23
31331;BME280;34067;39.548;-76.088;2023-05-09T12:06:33;101214.33;;;13.35;55.94
31331;BME280;34067;39.548;-76.088;2023-05-09T12:09:01;101210.67;;;12.38;51.74
31331;BME280;34067;39.548;-76.088;2023-05-09T12:11:29;101217.93;;;11.85;50.59
31331;BME280;34067;39.548;-76.088;2023-05-09T12:13:57;101213.58;;;13.85;49.32
31331;BME280;34067;39.548;-76.088;2023-05-09T12:16:26;101216.88;;;13.43;51.79
31331;BME280;34067;39.548;-76.088;2023-05-09T12:18:54;101213.89;;;13.34;45.87
31331;BME280;34067;39.548;-76.088;2023-05-09T12:21:22;101224.42;;;13.40;45.52
31331;BME280;34067;39.548;-76.088;2023-05-09T12:23:50;101232.61;;;14.24;43.13
31331;BME280;34067;39.548;-76.088;2023-05-09T12:26:22;101226.77;;;15.01;42.74
31331;BME280;34067;39.548;-76.088;2023-05-09T12:28:51;101225.90;;;13.33;45.60
31331;BME280;34067;39.548;-76.088;2023-05-09T12:31:20;101232.00;;;15.05;43.01
31331;BME280;34067;39.548;-76.088;2023-05-09T12:33:49;101248.83;;;14.79;42.78
31331;BME280;34067;39.548;-76.088;2023-05-09T12:36:16;101259.60;;;14.03;43.02
31331;BME280;34067;39.548;-76.088;2023-05-09T12:38:52;101259.07;;;13.40;43.29
31331;BME280;34067;39.548;-76.088;2023-05-09T12:41:20;101254.69;;;13.48;46.83